Time;durP1;ratioP1;P1;durP2;ratioP2;P2;SDS_P1;SDS_P2;PMS_P1;PMS_P2;Temp;Humidity;BMP_temperature;BMP_pressure;BME280_temperature;BME280_humidity;BME280_pressure;Samples;Min_cycle;Max_cycle;Signal;HPM_P1;HPM_P2
2021/12/05 00:21:58;;;;;;;;;;;3.20;99.90;;;;;;5031411;28;20008;-75
2021/12/05 00:24:25;;;;;;;;;;;3.20;99.90;;;;;;5031184;28;20280;-76
2021/12/05 00:26:57;;;;;;;;;;;3.10;99.90;;;;;;5030916;28;19905;-75
2021/12/05 00:29:44;;;;;;;;;;;3.10;99.90;;;;;;5031205;28;19912;-75
2021/12/05 00:40:28;;;;;;;;;;;2.80;99.90;;;;;;5032571;28;19909;-75
2021/12/05 00:59:12;;;;;;;;;;;2.70;99.90;;;;;;5015782;28;20390;-91
2021/12/05 01:04:40;;;;;;;;;;;2.60;99.90;;;;;;5016012;28;19945;-91
2021/12/05 01:12:39;;;;;;;;;;;2.80;99.90;;;;;;5040935;28;19897;-90
2021/12/05 01:15:09;;;;;;;;;;;2.90;99.90;;;;;;5004545;28;19919;-92
2021/12/05 01:18:05;;;;;;;;;;;2.90;99.90;;;;;;5011195;28;19917;-91
2021/12/05 01:20:27;;;;;;;;;;;2.90;99.90;;;;;;5040419;28;19906;-91
2021/12/05 01:23:00;;;;;;;;;;;2.80;99.90;;;;;;5007127;28;19913;-92
2021/12/05 01:25:40;;;;;;;;;;;2.70;99.90;;;;;;5000110;28;19913;-92
2021/12/05 01:30:58;;;;;;;;;;;2.70;99.90;;;;;;5015427;28;19906;-92
2021/12/05 01:41:54;;;;;;;;;;;2.70;99.90;;;;;;5015244;28;19905;-91
2021/12/05 01:47:26;;;;;;;;;;;2.70;99.90;;;;;;5015085;28;19940;-92
2021/12/05 02:07:48;;;;;;;;;;;2.70;99.90;;;;;;5013229;28;20370;-91
2021/12/05 02:30:33;;;;;;;;;;;2.80;99.90;;;;;;4995488;28;19905;-91
2021/12/05 02:35:56;;;;;;;;;;;3.00;99.90;;;;;;5018471;28;19955;-91
2021/12/05 02:41:08;;;;;;;;;;;3.20;99.90;;;;;;5013220;28;19912;-91
2021/12/05 02:43:38;;;;;;;;;;;3.10;99.90;;;;;;4997100;28;20358;-92
2021/12/05 02:46:05;;;;;;;;;;;3.00;99.90;;;;;;4996428;28;20511;-91
2021/12/05 02:48:35;;;;;;;;;;;3.00;99.90;;;;;;4996894;28;19928;-92
2021/12/05 02:51:02;;;;;;;;;;;3.10;99.90;;;;;;4996586;28;19906;-92
2021/12/05 02:53:53;;;;;;;;;;;3.20;99.90;;;;;;4957167;28;1106597;-92
2021/12/05 02:56:15;;;;;;;;;;;3.30;99.90;;;;;;5003980;28;20008;-91
2021/12/05 02:58:47;;;;;;;;;;;3.40;99.90;;;;;;4997521;28;19910;-91
2021/12/05 03:01:21;;;;;;;;;;;3.10;99.90;;;;;;4997510;28;20346;-92
2021/12/05 03:03:47;;;;;;;;;;;3.10;99.90;;;;;;4996575;28;19913;-92
2021/12/05 03:06:23;;;;;;;;;;;3.10;99.90;;;;;;4997255;28;19913;-91
2021/12/05 03:08:52;;;;;;;;;;;3.20;99.90;;;;;;4997331;28;19944;-92
2021/12/05 03:11:18;;;;;;;;;;;3.40;99.90;;;;;;4997084;28;19999;-92
2021/12/05 03:13:44;;;;;;;;;;;3.40;99.90;;;;;;4997042;28;19960;-92
2021/12/05 03:16:10;;;;;;;;;;;3.40;99.90;;;;;;4997117;28;19905;-91
2021/12/05 03:18:36;;;;;;;;;;;3.40;99.90;;;;;;5003329;28;19961;-91
2021/12/05 03:21:04;;;;;;;;;;;3.20;99.90;;;;;;5002787;28;19905;-91
2021/12/05 03:23:30;;;;;;;;;;;3.20;99.90;;;;;;4999634;28;19906;-91
2021/12/05 03:25:56;;;;;;;;;;;3.00;99.90;;;;;;4997246;28;20003;-92
2021/12/05 03:28:22;;;;;;;;;;;2.90;99.90;;;;;;4996991;28;19949;-91
2021/12/05 03:30:48;;;;;;;;;;;2.90;99.90;;;;;;4996966;28;19928;-92
2021/12/05 03:33:14;;;;;;;;;;;2.80;99.90;;;;;;4996770;28;19905;-92
2021/12/05 03:35:39;;;;;;;;;;;2.80;99.90;;;;;;4996586;28;19906;-92
2021/12/05 03:38:05;;;;;;;;;;;2.90;99.90;;;;;;4996864;28;20351;-92
2021/12/05 03:40:32;;;;;;;;;;;2.90;99.90;;;;;;4996728;28;19996;-92
2021/12/05 03:42:58;;;;;;;;;;;2.90;99.90;;;;;;4996690;28;20351;-92
2021/12/05 03:45:27;;;;;;;;;;;2.90;99.90;;;;;;4996706;28;19910;-92
2021/12/05 03:47:53;;;;;;;;;;;2.80;99.90;;;;;;4996427;28;20008;-92
2021/12/05 03:50:19;;;;;;;;;;;2.70;99.90;;;;;;4996550;28;19905;-92
2021/12/05 03:52:46;;;;;;;;;;;2.70;99.90;;;;;;4996303;28;19945;-92
2021/12/05 03:55:12;;;;;;;;;;;2.80;99.90;;;;;;4996900;28;20269;-92
2021/12/05 03:57:37;;;;;;;;;;;2.90;99.90;;;;;;4996575;28;19955;-91
2021/12/05 04:00:15;;;;;;;;;;;2.90;99.90;;;;;;5012766;28;19901;-90
2021/12/05 04:02:41;;;;;;;;;;;2.80;99.90;;;;;;5021442;28;19898;-90
2021/12/05 04:05:06;;;;;;;;;;;2.80;99.90;;;;;;5021338;28;19901;-92
2021/12/05 04:07:32;;;;;;;;;;;2.60;99.90;;;;;;5009024;28;20255;-91
2021/12/05 04:09:58;;;;;;;;;;;2.60;99.90;;;;;;4996760;28;19913;-92
2021/12/05 04:12:24;;;;;;;;;;;2.60;99.90;;;;;;4996896;28;19913;-91
2021/12/05 04:14:54;;;;;;;;;;;2.60;99.90;;;;;;4996461;28;19909;-92
2021/12/05 04:17:20;;;;;;;;;;;2.60;99.90;;;;;;4995815;28;20428;-91
2021/12/05 04:19:46;;;;;;;;;;;2.60;99.90;;;;;;4995901;28;19909;-91
2021/12/05 04:22:12;;;;;;;;;;;2.70;99.90;;;;;;4996353;28;19906;-92
2021/12/05 04:24:38;;;;;;;;;;;2.60;99.90;;;;;;4996375;28;19916;-92
2021/12/05 04:27:04;;;;;;;;;;;2.60;99.90;;;;;;4995666;28;19988;-92
2021/12/05 04:29:31;;;;;;;;;;;2.60;99.90;;;;;;4995952;28;19933;-92
2021/12/05 04:31:57;;;;;;;;;;;2.60;99.90;;;;;;4996186;28;19963;-92
2021/12/05 04:34:22;;;;;;;;;;;2.40;99.90;;;;;;4995985;28;19909;-91
2021/12/05 04:36:48;;;;;;;;;;;2.50;99.90;;;;;;4995559;28;19905;-92
2021/12/05 04:39:14;;;;;;;;;;;2.70;99.90;;;;;;4995871;28;19918;-92
2021/12/05 04:41:41;;;;;;;;;;;2.60;99.90;;;;;;4995948;28;19911;-92
2021/12/05 04:44:07;;;;;;;;;;;2.70;99.90;;;;;;4995447;28;19906;-91
2021/12/05 04:46:33;;;;;;;;;;;2.80;99.90;;;;;;4995189;28;20408;-92
2021/12/05 04:48:59;;;;;;;;;;;2.70;99.90;;;;;;4995260;28;20000;-92
2021/12/05 04:51:27;;;;;;;;;;;2.70;99.90;;;;;;4995391;28;19909;-92
2021/12/05 04:53:54;;;;;;;;;;;2.70;99.90;;;;;;4995212;28;19921;-91
2021/12/05 04:56:19;;;;;;;;;;;2.80;99.90;;;;;;4995430;28;19913;-92
2021/12/05 04:58:45;;;;;;;;;;;2.80;99.90;;;;;;4995739;28;19910;-92
2021/12/05 05:01:11;;;;;;;;;;;2.80;99.90;;;;;;4995606;28;19906;-92
2021/12/05 05:03:37;;;;;;;;;;;2.80;99.90;;;;;;4996240;28;19912;-92
2021/12/05 05:06:08;;;;;;;;;;;2.80;99.90;;;;;;4995877;28;19910;-92
2021/12/05 05:08:34;;;;;;;;;;;3.00;99.90;;;;;;4995721;28;19975;-91
2021/12/05 05:11:01;;;;;;;;;;;3.00;99.90;;;;;;4995704;28;19945;-91
2021/12/05 05:13:26;;;;;;;;;;;3.00;99.90;;;;;;4995978;28;20501;-92
2021/12/05 05:15:53;;;;;;;;;;;3.10;99.90;;;;;;4995720;28;19916;-92
2021/12/05 05:18:18;;;;;;;;;;;3.00;99.90;;;;;;4997348;28;19905;-91
2021/12/05 05:20:59;;;;;;;;;;;2.80;99.90;;;;;;4996005;28;20301;-92
2021/12/05 05:53:19;;;;;;;;;;;2.60;99.90;;;;;;4951430;22;19928;-81
2021/12/05 05:55:45;;;;;;;;;;;2.60;99.90;;;;;;5032870;28;20300;-78
2021/12/05 05:58:14;;;;;;;;;;;2.60;99.90;;;;;;5048282;28;19931;-79
2021/12/05 06:00:52;;;;;;;;;;;2.50;99.90;;;;;;5031567;28;19905;-79
2021/12/05 06:03:21;;;;;;;;;;;2.50;99.90;;;;;;5048307;28;19912;-79
2021/12/05 06:06:07;;;;;;;;;;;2.50;99.90;;;;;;5050216;28;20373;-81
2021/12/05 06:08:34;;;;;;;;;;;2.30;99.90;;;;;;5048186;28;19905;-79
2021/12/05 06:11:01;;;;;;;;;;;2.40;99.90;;;;;;5048461;28;19905;-81
2021/12/05 06:13:30;;;;;;;;;;;2.40;99.90;;;;;;5050428;28;19905;-79
2021/12/05 06:15:56;;;;;;;;;;;2.30;99.90;;;;;;5031895;28;19932;-81
2021/12/05 06:18:22;;;;;;;;;;;2.40;99.90;;;;;;5031353;28;19905;-80
2021/12/05 06:20:49;;;;;;;;;;;2.30;99.90;;;;;;5049321;28;19912;-81
2021/12/05 06:23:15;;;;;;;;;;;2.40;99.90;;;;;;5031480;28;20347;-79
2021/12/05 06:25:48;;;;;;;;;;;2.40;99.90;;;;;;5031532;28;19905;-80
2021/12/05 06:28:14;;;;;;;;;;;2.40;99.90;;;;;;5031779;28;19905;-79
2021/12/05 06:30:50;;;;;;;;;;;2.40;99.90;;;;;;5031859;28;19912;-81
2021/12/05 06:46:18;;;;;;;;;;;2.50;99.90;;;;;;5047171;28;20000;-79
2021/12/05 06:48:45;;;;;;;;;;;2.50;99.90;;;;;;5047155;28;20360;-81
2021/12/05 06:51:11;;;;;;;;;;;2.50;99.90;;;;;;5031501;28;19912;-80
2021/12/05 06:53:37;;;;;;;;;;;2.40;99.90;;;;;;5046347;28;20361;-80
2021/12/05 06:56:04;;;;;;;;;;;2.40;99.90;;;;;;5047494;28;19976;-80
2021/12/05 06:58:31;;;;;;;;;;;2.50;99.90;;;;;;5029856;28;19948;-81
2021/12/05 07:00:57;;;;;;;;;;;2.50;99.90;;;;;;5049233;28;19972;-80
2021/12/05 07:03:23;;;;;;;;;;;2.50;99.90;;;;;;5044601;28;19905;-81
2021/12/05 07:05:53;;;;;;;;;;;2.50;99.90;;;;;;5025516;28;19971;-81
2021/12/05 07:08:21;;;;;;;;;;;2.40;99.90;;;;;;5025473;28;19912;-81
2021/12/05 07:10:56;;;;;;;;;;;2.50;99.90;;;;;;5026622;28;19909;-81
2021/12/05 07:18:43;;;;;;;;;;;2.40;99.90;;;;;;5045454;28;19909;-80
2021/12/05 07:24:07;;;;;;;;;;;2.50;99.90;;;;;;5042685;28;20348;-79
2021/12/05 07:40:23;;;;;;;;;;;2.10;99.90;;;;;;5047130;28;20323;-82
2021/12/05 07:42:58;;;;;;;;;;;2.10;99.90;;;;;;5046349;28;19944;-81
2021/12/05 07:45:32;;;;;;;;;;;2.20;99.90;;;;;;5049376;28;19987;-81
2021/12/05 07:48:05;;;;;;;;;;;2.30;99.90;;;;;;5045794;28;19909;-82
2021/12/05 07:50:44;;;;;;;;;;;2.20;99.90;;;;;;5045159;28;20012;-82
2021/12/05 07:53:17;;;;;;;;;;;2.10;99.90;;;;;;5029172;28;19905;-80
2021/12/05 07:55:46;;;;;;;;;;;2.20;99.90;;;;;;5045249;28;19909;-79
2021/12/05 07:58:29;;;;;;;;;;;2.20;99.90;;;;;;5044129;28;19906;-79
2021/12/05 08:01:19;;;;;;;;;;;2.30;99.90;;;;;;5036925;28;19913;-81
2021/12/05 08:14:48;;;;;;;;;;;2.20;99.90;;;;;;5046941;28;19889;-82
2021/12/05 08:17:18;;;;;;;;;;;2.30;99.90;;;;;;5025135;28;20070;-82
2021/12/05 08:19:44;;;;;;;;;;;2.20;99.90;;;;;;5025396;28;20427;-82
2021/12/05 08:22:10;;;;;;;;;;;2.00;99.90;;;;;;5026003;28;19916;-82
2021/12/05 08:24:39;;;;;;;;;;;1.90;99.90;;;;;;5026535;28;19941;-80
2021/12/05 08:27:06;;;;;;;;;;;1.90;99.90;;;;;;5028248;28;19916;-78
2021/12/05 08:29:44;;;;;;;;;;;1.90;99.90;;;;;;5041889;28;19912;-79
2021/12/05 08:32:27;;;;;;;;;;;2.00;99.90;;;;;;5015969;28;19905;-82
2021/12/05 09:24:09;;;;;;;;;;;2.70;99.90;;;;;;5046164;28;19916;-82
2021/12/05 09:38:38;;;;;;;;;;;2.70;99.90;;;;;;5048054;28;20331;-80
2021/12/05 09:40:33;;;;;;;;;;;2.70;99.90;;;;;;5051276;28;19980;-82
2021/12/05 10:18:42;;;;;;;;;;;3.00;99.90;;;;;;5052150;28;19948;-82
2021/12/05 10:37:50;;;;;;;;;;;3.10;99.90;;;;;;5031040;28;19905;-80
2021/12/05 10:40:20;;;;;;;;;;;3.20;99.90;;;;;;5047203;28;20324;-79
2021/12/05 10:42:47;;;;;;;;;;;3.20;99.90;;;;;;5030882;28;19973;-79
2021/12/05 10:45:19;;;;;;;;;;;3.20;99.90;;;;;;5031507;28;19912;-81
2021/12/05 10:47:46;;;;;;;;;;;3.30;99.90;;;;;;5048459;28;19951;-81
2021/12/05 10:50:30;;;;;;;;;;;3.30;99.90;;;;;;5048749;28;20443;-80
2021/12/05 10:53:16;;;;;;;;;;;3.30;99.90;;;;;;5033253;28;19939;-80
2021/12/05 10:55:42;;;;;;;;;;;3.40;99.90;;;;;;5012467;28;19913;-77
2021/12/05 10:58:07;;;;;;;;;;;3.40;99.90;;;;;;5048243;28;20292;-80
2021/12/05 11:00:33;;;;;;;;;;;3.40;99.90;;;;;;5031454;28;19928;-79
2021/12/05 11:03:16;;;;;;;;;;;3.30;99.90;;;;;;5033444;28;20301;-79
2021/12/05 11:05:42;;;;;;;;;;;3.40;99.90;;;;;;5050396;28;19905;-82
2021/12/05 11:08:27;;;;;;;;;;;3.50;99.90;;;;;;5050413;28;19909;-79
2021/12/05 11:11:05;;;;;;;;;;;3.50;99.90;;;;;;5034079;28;19912;-79
2021/12/05 11:13:35;;;;;;;;;;;3.70;99.90;;;;;;5033731;28;19948;-80
2021/12/05 11:16:00;;;;;;;;;;;3.80;99.90;;;;;;5050572;28;20415;-79
2021/12/05 11:18:43;;;;;;;;;;;4.00;99.90;;;;;;5034145;28;19905;-81
2021/12/05 11:21:29;;;;;;;;;;;3.90;99.90;;;;;;5049266;28;19905;-80
2021/12/05 11:24:09;;;;;;;;;;;3.90;99.90;;;;;;5032933;28;20272;-79
2021/12/05 11:26:36;;;;;;;;;;;3.90;99.90;;;;;;5034126;28;19932;-79
2021/12/05 11:29:02;;;;;;;;;;;3.90;99.90;;;;;;5034336;28;19967;-78
2021/12/05 11:31:29;;;;;;;;;;;3.80;99.90;;;;;;5033621;28;19905;-81
2021/12/05 11:33:56;;;;;;;;;;;3.80;99.90;;;;;;5033336;28;19906;-79
2021/12/05 11:36:26;;;;;;;;;;;3.90;99.90;;;;;;5031983;28;19980;-80
2021/12/05 11:38:51;;;;;;;;;;;3.80;99.90;;;;;;5045676;28;19932;-79
2021/12/05 11:41:20;;;;;;;;;;;3.80;99.90;;;;;;5031313;28;19909;-81
2021/12/05 11:43:54;;;;;;;;;;;3.90;99.90;;;;;;5028191;28;20472;-79
2021/12/05 11:46:28;;;;;;;;;;;4.10;99.90;;;;;;5030520;28;19936;-80
2021/12/05 11:48:56;;;;;;;;;;;4.20;99.90;;;;;;5012868;28;19913;-80
2021/12/05 11:51:31;;;;;;;;;;;4.20;99.90;;;;;;5012284;28;19935;-79
2021/12/05 11:53:56;;;;;;;;;;;4.10;99.90;;;;;;5012789;28;20355;-81
2021/12/05 11:56:36;;;;;;;;;;;4.20;99.90;;;;;;5028244;28;19906;-81
2021/12/05 11:59:20;;;;;;;;;;;4.20;99.90;;;;;;5029335;28;19915;-79
2021/12/05 12:01:49;;;;;;;;;;;4.40;99.90;;;;;;5028349;28;19944;-81
2021/12/05 12:04:16;;;;;;;;;;;4.40;99.90;;;;;;5039376;28;19924;-81
2021/12/05 12:06:43;;;;;;;;;;;4.30;99.90;;;;;;5046436;28;20380;-80
2021/12/05 12:09:09;;;;;;;;;;;4.20;99.90;;;;;;5046299;28;19912;-81
2021/12/05 12:11:35;;;;;;;;;;;4.20;99.90;;;;;;5028925;28;19905;-81
2021/12/05 12:14:01;;;;;;;;;;;4.20;99.90;;;;;;5028314;28;20411;-82
2021/12/05 12:16:33;;;;;;;;;;;4.20;99.90;;;;;;5027731;28;19912;-81
2021/12/05 12:18:59;;;;;;;;;;;4.20;99.90;;;;;;5028476;28;19916;-81
2021/12/05 12:21:27;;;;;;;;;;;4.10;99.90;;;;;;5043205;28;19948;-81
2021/12/05 12:23:54;;;;;;;;;;;4.30;99.90;;;;;;5027357;28;19916;-80
2021/12/05 12:26:20;;;;;;;;;;;4.30;99.90;;;;;;5043746;28;20380;-81
2021/12/05 12:28:46;;;;;;;;;;;4.50;99.90;;;;;;5027723;28;19951;-81
2021/12/05 12:31:25;;;;;;;;;;;4.30;99.90;;;;;;5043539;28;19889;-81
2021/12/05 12:33:52;;;;;;;;;;;4.30;99.90;;;;;;5042931;28;19909;-79
2021/12/05 12:36:30;;;;;;;;;;;4.40;99.90;;;;;;5043867;28;19935;-81
2021/12/05 12:38:56;;;;;;;;;;;4.50;99.90;;;;;;5043656;28;19916;-81
2021/12/05 12:41:23;;;;;;;;;;;4.80;99.90;;;;;;5024685;28;19905;-81
2021/12/05 12:43:52;;;;;;;;;;;4.60;99.90;;;;;;5040973;28;19905;-82
2021/12/05 12:46:20;;;;;;;;;;;4.70;99.90;;;;;;5024288;28;19909;-82
2021/12/05 12:48:46;;;;;;;;;;;4.70;99.90;;;;;;5025403;28;19912;-81
2021/12/05 12:51:30;;;;;;;;;;;4.80;99.90;;;;;;5024660;28;19901;-81
2021/12/05 12:53:58;;;;;;;;;;;4.80;99.90;;;;;;5051272;22;19924;-77
2021/12/05 12:56:24;;;;;;;;;;;4.90;99.90;;;;;;4994936;28;19914;-77
2021/12/05 12:58:54;;;;;;;;;;;5.00;99.90;;;;;;4978412;28;20004;-77
2021/12/05 13:01:36;;;;;;;;;;;4.80;99.90;;;;;;4994861;28;19909;-77
2021/12/05 13:05:00;;;;;;;;;;;4.70;99.90;;;;;;5012615;28;19996;-77
2021/12/05 13:10:08;;;;;;;;;;;4.70;99.90;;;;;;4994991;28;19905;-77
2021/12/05 13:12:40;;;;;;;;;;;4.50;99.90;;;;;;5012912;28;19906;-77
2021/12/05 13:15:11;;;;;;;;;;;4.60;99.90;;;;;;4995251;28;19995;-77
2021/12/05 13:17:45;;;;;;;;;;;4.40;99.90;;;;;;4994788;28;19905;-76
2021/12/05 13:20:11;;;;;;;;;;;4.60;99.90;;;;;;5012405;28;19983;-77
2021/12/05 13:22:56;;;;;;;;;;;4.50;99.90;;;;;;4994889;28;19913;-77
2021/12/05 13:25:21;;;;;;;;;;;4.40;99.90;;;;;;4994800;28;19913;-77
2021/12/05 13:27:47;;;;;;;;;;;4.40;99.90;;;;;;5012118;28;19905;-77
2021/12/05 13:30:26;;;;;;;;;;;4.30;99.90;;;;;;5012441;28;19909;-77
2021/12/05 13:33:11;;;;;;;;;;;4.20;99.90;;;;;;5012447;28;19910;-77
2021/12/05 13:35:38;;;;;;;;;;;4.30;99.90;;;;;;5012169;28;19905;-77
2021/12/05 13:38:04;;;;;;;;;;;4.10;99.90;;;;;;5012355;28;19916;-77
2021/12/05 13:40:32;;;;;;;;;;;4.10;99.90;;;;;;4978684;28;20278;-77
2021/12/05 13:43:06;;;;;;;;;;;4.00;99.90;;;;;;5012280;28;19948;-77
2021/12/05 13:45:36;;;;;;;;;;;4.00;99.90;;;;;;4995081;28;19905;-77
2021/12/05 13:48:03;;;;;;;;;;;4.00;99.90;;;;;;5014511;28;20327;-77
2021/12/05 13:50:33;;;;;;;;;;;4.00;99.90;;;;;;4998066;28;19963;-77
2021/12/05 13:53:02;;;;;;;;;;;3.90;99.90;;;;;;4998106;28;19916;-77
2021/12/05 13:55:40;;;;;;;;;;;3.90;99.90;;;;;;5015807;28;20048;-77
2021/12/05 13:58:17;;;;;;;;;;;4.00;99.90;;;;;;5015735;28;19906;-77
2021/12/05 14:00:58;;;;;;;;;;;3.90;99.90;;;;;;5015465;28;19909;-77
2021/12/05 14:03:37;;;;;;;;;;;3.80;99.90;;;;;;4997860;28;19906;-77
2021/12/05 14:06:03;;;;;;;;;;;3.90;99.90;;;;;;4997363;28;19905;-77
2021/12/05 14:08:29;;;;;;;;;;;3.90;99.90;;;;;;4997815;28;19915;-77
2021/12/05 14:10:55;;;;;;;;;;;3.90;99.90;;;;;;5014790;28;20368;-77
2021/12/05 14:13:21;;;;;;;;;;;3.80;99.90;;;;;;5015018;28;19964;-77
2021/12/05 14:15:55;;;;;;;;;;;3.80;99.90;;;;;;4981365;28;19905;-77
2021/12/05 14:18:21;;;;;;;;;;;3.80;99.90;;;;;;4981577;28;19906;-76
2021/12/05 14:20:46;;;;;;;;;;;3.80;99.90;;;;;;5014646;28;19916;-77
2021/12/05 14:23:19;;;;;;;;;;;3.80;99.90;;;;;;5013566;28;20077;-76
2021/12/05 14:25:45;;;;;;;;;;;3.70;99.90;;;;;;5015113;28;19906;-77
2021/12/05 14:28:10;;;;;;;;;;;3.60;99.90;;;;;;4996687;28;19906;-77
2021/12/05 14:30:38;;;;;;;;;;;3.60;99.90;;;;;;4997296;28;19905;-77
2021/12/05 14:33:04;;;;;;;;;;;3.60;99.90;;;;;;5015042;28;19916;-77
2021/12/05 14:35:35;;;;;;;;;;;3.70;99.90;;;;;;4997469;28;20292;-77
2021/12/05 14:38:03;;;;;;;;;;;3.70;99.90;;;;;;5014804;28;20435;-77
2021/12/05 14:40:31;;;;;;;;;;;3.70;99.90;;;;;;5015029;28;19963;-77
2021/12/05 14:42:59;;;;;;;;;;;3.70;99.90;;;;;;4997529;28;19905;-77
2021/12/05 14:45:28;;;;;;;;;;;3.80;99.90;;;;;;4997051;28;19912;-77
2021/12/05 14:47:55;;;;;;;;;;;3.80;99.90;;;;;;5014579;28;19959;-77
2021/12/05 14:50:22;;;;;;;;;;;3.90;99.90;;;;;;5014841;28;19906;-77
2021/12/05 14:52:50;;;;;;;;;;;3.80;99.90;;;;;;5015148;28;19912;-77
2021/12/05 14:55:18;;;;;;;;;;;3.80;99.90;;;;;;4996859;28;19913;-77
2021/12/05 14:57:45;;;;;;;;;;;3.50;99.90;;;;;;5014290;28;19992;-76
2021/12/05 15:00:26;;;;;;;;;;;3.40;99.90;;;;;;4995984;28;19925;-76
2021/12/05 15:03:04;;;;;;;;;;;3.40;99.90;;;;;;5014565;28;19905;-77
2021/12/05 15:05:31;;;;;;;;;;;3.40;99.90;;;;;;5014367;28;20004;-77
2021/12/05 15:08:01;;;;;;;;;;;3.40;99.90;;;;;;4996827;28;19909;-77
2021/12/05 15:10:27;;;;;;;;;;;3.40;99.90;;;;;;5014049;28;19905;-76
2021/12/05 15:12:54;;;;;;;;;;;3.50;99.90;;;;;;4996467;28;19912;-76
2021/12/05 15:15:21;;;;;;;;;;;3.30;99.90;;;;;;5014116;28;20284;-76
2021/12/05 15:17:46;;;;;;;;;;;3.30;99.90;;;;;;4996947;28;19906;-77
2021/12/05 15:20:14;;;;;;;;;;;3.20;99.90;;;;;;4996472;28;19920;-77
2021/12/05 15:22:41;;;;;;;;;;;3.10;99.90;;;;;;4996715;28;19975;-77
2021/12/05 15:25:09;;;;;;;;;;;3.10;99.90;;;;;;5014343;28;19956;-78
2021/12/05 15:27:35;;;;;;;;;;;3.10;99.90;;;;;;4996061;28;20377;-76
2021/12/05 15:30:03;;;;;;;;;;;3.10;99.90;;;;;;4996106;28;19905;-76
2021/12/05 15:32:30;;;;;;;;;;;3.10;99.90;;;;;;5013930;28;19944;-76
2021/12/05 15:35:07;;;;;;;;;;;3.10;99.90;;;;;;4996416;28;19974;-77
2021/12/05 15:37:33;;;;;;;;;;;3.20;99.90;;;;;;5011668;28;19912;-77
2021/12/05 15:40:00;;;;;;;;;;;3.20;99.90;;;;;;5033050;28;19913;-77
2021/12/05 15:42:29;;;;;;;;;;;3.10;99.90;;;;;;5013794;28;20249;-77
2021/12/05 15:44:56;;;;;;;;;;;3.10;99.90;;;;;;4995931;28;19905;-76
2021/12/05 15:47:30;;;;;;;;;;;3.00;99.90;;;;;;5013530;28;19988;-78
2021/12/05 15:50:01;;;;;;;;;;;3.10;99.90;;;;;;4979420;28;19951;-77
2021/12/05 15:52:29;;;;;;;;;;;3.10;99.90;;;;;;4978928;28;20388;-76
2021/12/05 15:54:56;;;;;;;;;;;3.20;99.90;;;;;;5010289;28;20307;-77
2021/12/05 15:57:36;;;;;;;;;;;3.40;99.90;;;;;;4998887;28;19905;-77
2021/12/05 16:00:14;;;;;;;;;;;3.30;99.90;;;;;;5033000;28;20284;-77
2021/12/05 16:02:41;;;;;;;;;;;3.30;99.90;;;;;;5019077;28;20004;-77
2021/12/05 16:05:15;;;;;;;;;;;3.20;99.90;;;;;;5013064;28;19913;-77
2021/12/05 16:07:41;;;;;;;;;;;3.30;99.90;;;;;;5013058;28;20008;-76
2021/12/05 16:10:08;;;;;;;;;;;3.50;99.90;;;;;;4995252;28;19960;-76
2021/12/05 16:12:36;;;;;;;;;;;3.50;99.90;;;;;;5013277;28;19996;-77
2021/12/05 16:15:02;;;;;;;;;;;3.60;99.90;;;;;;4979402;28;20280;-77
2021/12/05 16:17:29;;;;;;;;;;;3.50;99.90;;;;;;4995338;28;19912;-77
2021/12/05 16:20:13;;;;;;;;;;;3.50;99.90;;;;;;5012919;28;19909;-77
2021/12/05 16:22:56;;;;;;;;;;;3.50;99.90;;;;;;4995957;28;19984;-77
2021/12/05 16:25:23;;;;;;;;;;;3.40;99.90;;;;;;4995757;28;19909;-76
2021/12/05 16:27:49;;;;;;;;;;;3.50;99.90;;;;;;5013408;28;20277;-77
2021/12/05 16:30:24;;;;;;;;;;;3.50;99.90;;;;;;5013262;28;19905;-76
2021/12/05 16:32:50;;;;;;;;;;;3.50;99.90;;;;;;5013702;28;19913;-77
2021/12/05 16:35:30;;;;;;;;;;;3.50;99.90;;;;;;4995691;28;19912;-77
2021/12/05 16:37:56;;;;;;;;;;;3.50;99.90;;;;;;5013724;28;19905;-77
2021/12/05 16:40:22;;;;;;;;;;;3.40;99.90;;;;;;4994721;28;19909;-76
2021/12/05 16:42:48;;;;;;;;;;;3.50;99.90;;;;;;4993446;28;19905;-77
2021/12/05 16:45:14;;;;;;;;;;;3.70;99.90;;;;;;4995147;28;20353;-77
2021/12/05 16:47:43;;;;;;;;;;;3.70;99.90;;;;;;4995328;28;20423;-77
2021/12/05 16:50:13;;;;;;;;;;;3.70;99.90;;;;;;5013150;28;19909;-77
2021/12/05 16:52:47;;;;;;;;;;;3.80;99.90;;;;;;5012974;28;20369;-77
2021/12/05 16:55:24;;;;;;;;;;;3.70;99.90;;;;;;4995885;28;19913;-76
2021/12/05 16:58:08;;;;;;;;;;;3.70;99.90;;;;;;4995211;28;19944;-77
2021/12/05 17:00:37;;;;;;;;;;;3.60;99.90;;;;;;4978718;28;19928;-77
2021/12/05 17:03:05;;;;;;;;;;;3.50;99.90;;;;;;4995125;28;19912;-77
2021/12/05 17:05:37;;;;;;;;;;;3.50;99.90;;;;;;4994690;28;19905;-77
2021/12/05 17:08:10;;;;;;;;;;;3.70;99.90;;;;;;5012610;28;19912;-77
2021/12/05 17:10:36;;;;;;;;;;;3.70;99.90;;;;;;4995116;28;19928;-77
2021/12/05 17:13:08;;;;;;;;;;;3.70;99.90;;;;;;4994928;28;19906;-77
2021/12/05 17:15:34;;;;;;;;;;;3.70;99.90;;;;;;4978632;28;19905;-77
2021/12/05 17:18:03;;;;;;;;;;;3.60;99.90;;;;;;5012163;28;19905;-76
2021/12/05 17:20:28;;;;;;;;;;;3.30;99.90;;;;;;4978968;28;20341;-77
2021/12/05 17:22:56;;;;;;;;;;;3.20;99.90;;;;;;4996997;28;19945;-77
2021/12/05 17:25:26;;;;;;;;;;;3.30;99.90;;;;;;4983163;28;19910;-77
2021/12/05 17:27:52;;;;;;;;;;;3.40;99.90;;;;;;4998742;28;19909;-77
2021/12/05 17:30:18;;;;;;;;;;;3.30;99.90;;;;;;4999145;28;19955;-77
2021/12/05 17:32:43;;;;;;;;;;;3.40;99.90;;;;;;4998529;28;19906;-76
2021/12/05 17:35:09;;;;;;;;;;;3.50;99.90;;;;;;5016345;28;20000;-77
2021/12/05 17:37:35;;;;;;;;;;;3.60;99.90;;;;;;4982071;28;19928;-77
2021/12/05 17:40:04;;;;;;;;;;;3.40;99.90;;;;;;5015994;28;20011;-77
2021/12/05 17:42:33;;;;;;;;;;;3.30;99.90;;;;;;4998525;28;19909;-77
2021/12/05 17:45:00;;;;;;;;;;;3.40;99.90;;;;;;4998753;28;19905;-77
2021/12/05 17:47:26;;;;;;;;;;;3.30;99.90;;;;;;5013601;28;20008;-77
2021/12/05 17:49:53;;;;;;;;;;;3.20;99.90;;;;;;4997462;28;19948;-76
2021/12/05 17:52:21;;;;;;;;;;;3.30;99.90;;;;;;5015811;28;20365;-77
2021/12/05 17:57:29;;;;;;;;;;;3.30;99.90;;;;;;4997857;28;19905;-77
2021/12/05 18:02:47;;;;;;;;;;;3.40;99.90;;;;;;4998188;28;19964;-77
2021/12/05 18:05:18;;;;;;;;;;;3.50;99.90;;;;;;4998232;28;19959;-77
2021/12/05 18:07:45;;;;;;;;;;;3.40;99.90;;;;;;4997669;28;19912;-77
2021/12/05 18:10:11;;;;;;;;;;;3.40;99.90;;;;;;4981537;28;19910;-77
2021/12/05 18:12:37;;;;;;;;;;;3.40;99.90;;;;;;5015296;28;20000;-77
2021/12/05 18:15:17;;;;;;;;;;;3.50;99.90;;;;;;5015595;28;20420;-77
2021/12/05 18:17:43;;;;;;;;;;;3.50;99.90;;;;;;5015132;28;20004;-77
2021/12/05 18:20:11;;;;;;;;;;;3.40;99.90;;;;;;4981566;28;19995;-77
2021/12/05 18:22:37;;;;;;;;;;;3.50;99.90;;;;;;4998043;28;20396;-77
2021/12/05 18:25:03;;;;;;;;;;;3.30;99.90;;;;;;4981308;28;19945;-77
2021/12/05 18:27:30;;;;;;;;;;;3.20;99.90;;;;;;4997623;28;19914;-77
2021/12/05 18:29:56;;;;;;;;;;;3.00;99.90;;;;;;4997963;28;20272;-77
2021/12/05 18:32:22;;;;;;;;;;;3.00;99.90;;;;;;4997061;28;19905;-77
2021/12/05 18:34:47;;;;;;;;;;;3.00;99.90;;;;;;4997090;28;19905;-77
2021/12/05 18:37:13;;;;;;;;;;;3.00;99.90;;;;;;4996902;28;19905;-77
2021/12/05 18:39:42;;;;;;;;;;;3.10;99.90;;;;;;4980908;28;19952;-77
2021/12/05 18:42:09;;;;;;;;;;;2.90;99.90;;;;;;4996808;28;19912;-76
2021/12/05 18:44:39;;;;;;;;;;;2.80;99.90;;;;;;5014824;28;19959;-76
2021/12/05 18:47:05;;;;;;;;;;;2.80;99.90;;;;;;5014313;28;19910;-76
2021/12/05 18:49:31;;;;;;;;;;;2.90;99.90;;;;;;4996911;28;19957;-77
2021/12/05 18:51:58;;;;;;;;;;;2.80;99.90;;;;;;5014876;28;20274;-77
2021/12/05 18:56:52;;;;;;;;;;;2.60;99.90;;;;;;5027591;28;19921;-74
2021/12/05 18:59:19;;;;;;;;;;;2.60;99.90;;;;;;5007270;28;20427;-73
2021/12/05 19:04:38;;;;;;;;;;;2.60;99.90;;;;;;5013912;28;19913;-74
2021/12/05 19:07:10;;;;;;;;;;;2.60;99.90;;;;;;5032455;28;19909;-74
2021/12/05 19:12:05;;;;;;;;;;;2.60;99.90;;;;;;5033597;28;19905;-74
2021/12/05 19:14:43;;;;;;;;;;;2.70;99.90;;;;;;5032284;28;19912;-74
2021/12/05 19:17:10;;;;;;;;;;;2.70;99.90;;;;;;5015353;28;19905;-74
2021/12/05 19:19:39;;;;;;;;;;;2.60;99.90;;;;;;5035064;28;19974;-74
2021/12/05 19:22:04;;;;;;;;;;;2.50;99.90;;;;;;4998294;28;19909;-74
2021/12/05 19:24:30;;;;;;;;;;;2.40;99.90;;;;;;5035881;28;19951;-73
2021/12/05 19:26:58;;;;;;;;;;;2.40;99.90;;;;;;5033423;28;19905;-73
2021/12/05 19:29:25;;;;;;;;;;;2.50;99.90;;;;;;4999116;28;19913;-74
2021/12/05 19:31:52;;;;;;;;;;;2.40;99.90;;;;;;5032637;28;20299;-74
2021/12/05 19:34:18;;;;;;;;;;;2.40;99.90;;;;;;5032821;28;19905;-74
2021/12/05 19:36:44;;;;;;;;;;;2.40;99.90;;;;;;5015303;28;19991;-74
2021/12/05 19:39:10;;;;;;;;;;;2.40;99.90;;;;;;5015339;28;20004;-74
2021/12/05 19:41:36;;;;;;;;;;;2.30;99.90;;;;;;5032853;28;20272;-74
2021/12/05 19:44:03;;;;;;;;;;;2.30;99.90;;;;;;5032848;28;19988;-74
2021/12/05 19:46:30;;;;;;;;;;;2.20;99.90;;;;;;5032223;28;19959;-73
2021/12/05 19:48:57;;;;;;;;;;;2.20;99.90;;;;;;5032726;28;20315;-74
2021/12/05 19:51:24;;;;;;;;;;;2.30;99.90;;;;;;5015118;28;20309;-74
2021/12/05 19:53:49;;;;;;;;;;;2.40;99.90;;;;;;5014955;28;19955;-73
2021/12/05 19:56:18;;;;;;;;;;;2.10;99.90;;;;;;5032198;28;19960;-74
2021/12/05 19:58:44;;;;;;;;;;;2.10;99.90;;;;;;5032655;28;19905;-74
2021/12/05 20:01:10;;;;;;;;;;;2.00;99.90;;;;;;5014731;28;19905;-74